sensor_id;sensor_type;location;lat;lon;timestamp;P1;durP1;ratioP1;P2;durP2;ratioP2
74821;SDS011;63353;48.702;8.884;2023-04-15T00:02:15;9.73;;;5.30;;
74821;SDS011;63353;48.702;8.884;2023-04-15T00:04:45;7.03;;;5.03;;
74821;SDS011;63353;48.702;8.884;2023-04-15T00:07:17;9.13;;;5.60;;
74821;SDS011;63353;48.702;8.884;2023-04-15T00:09:42;6.50;;;5.13;;
74821;SDS011;63353;48.702;8.884;2023-04-15T00:12:18;7.13;;;5.20;;
74821;SDS011;63353;48.702;8.884;2023-04-15T00:14:43;7.57;;;5.00;;
74821;SDS011;63353;48.702;8.884;2023-04-15T00:17:15;6.40;;;5.00;;
74821;SDS011;63353;48.702;8.884;2023-04-15T00:19:42;8.70;;;5.17;;
74821;SDS011;63353;48.702;8.884;2023-04-15T00:22:09;7.20;;;4.77;;
74821;SDS011;63353;48.702;8.884;2023-04-15T00:24:36;6.93;;;4.70;;
74821;SDS011;63353;48.702;8.884;2023-04-15T00:27:04;6.10;;;4.60;;
74821;SDS011;63353;48.702;8.884;2023-04-15T00:29:36;9.73;;;4.67;;
74821;SDS011;63353;48.702;8.884;2023-04-15T00:32:14;5.83;;;4.70;;
74821;SDS011;63353;48.702;8.884;2023-04-15T00:34:45;7.13;;;5.03;;
74821;SDS011;63353;48.702;8.884;2023-04-15T00:37:11;7.80;;;5.10;;
74821;SDS011;63353;48.702;8.884;2023-04-15T00:39:44;10.27;;;5.10;;
74821;SDS011;63353;48.702;8.884;2023-04-15T00:42:09;9.83;;;5.20;;
74821;SDS011;63353;48.702;8.884;2023-04-15T00:44:35;7.53;;;4.80;;
74821;SDS011;63353;48.702;8.884;2023-04-15T00:47:01;7.07;;;5.00;;
74821;SDS011;63353;48.702;8.884;2023-04-15T00:49:29;7.33;;;5.00;;
74821;SDS011;63353;48.702;8.884;2023-04-15T00:52:02;6.90;;;4.60;;
74821;SDS011;63353;48.702;8.884;2023-04-15T00:54:27;5.70;;;4.40;;
74821;SDS011;63353;48.702;8.884;2023-04-15T00:56:56;7.27;;;4.30;;
74821;SDS011;63353;48.702;8.884;2023-04-15T00:59:21;7.53;;;4.63;;
74821;SDS011;63353;48.702;8.884;2023-04-15T01:01:51;7.27;;;4.80;;
74821;SDS011;63353;48.702;8.884;2023-04-15T01:04:19;7.23;;;4.50;;
74821;SDS011;63353;48.702;8.884;2023-04-15T01:06:45;6.73;;;4.97;;
74821;SDS011;63353;48.702;8.884;2023-04-15T01:09:23;7.40;;;4.57;;
74821;SDS011;63353;48.702;8.884;2023-04-15T01:12:03;6.70;;;4.83;;
74821;SDS011;63353;48.702;8.884;2023-04-15T01:14:31;7.23;;;5.00;;
74821;SDS011;63353;48.702;8.884;2023-04-15T01:16:58;6.60;;;4.70;;
74821;SDS011;63353;48.702;8.884;2023-04-15T01:19:32;7.73;;;4.67;;
74821;SDS011;63353;48.702;8.884;2023-04-15T01:22:02;7.50;;;4.70;;
74821;SDS011;63353;48.702;8.884;2023-04-15T01:24:31;8.60;;;4.73;;
74821;SDS011;63353;48.702;8.884;2023-04-15T01:27:03;8.23;;;4.50;;
74821;SDS011;63353;48.702;8.884;2023-04-15T01:29:31;10.60;;;4.70;;
74821;SDS011;63353;48.702;8.884;2023-04-15T01:32:00;8.93;;;4.50;;
74821;SDS011;63353;48.702;8.884;2023-04-15T01:34:26;5.40;;;4.17;;
74821;SDS011;63353;48.702;8.884;2023-04-15T01:36:57;7.20;;;4.10;;
74821;SDS011;63353;48.702;8.884;2023-04-15T01:39:23;9.10;;;4.73;;
74821;SDS011;63353;48.702;8.884;2023-04-15T01:41:49;7.60;;;4.57;;
74821;SDS011;63353;48.702;8.884;2023-04-15T01:44:14;7.00;;;4.53;;
74821;SDS011;63353;48.702;8.884;2023-04-15T01:46:40;8.10;;;4.63;;
74821;SDS011;63353;48.702;8.884;2023-04-15T01:49:06;5.40;;;4.20;;
74821;SDS011;63353;48.702;8.884;2023-04-15T01:51:32;6.80;;;4.23;;
74821;SDS011;63353;48.702;8.884;2023-04-15T01:54:03;5.87;;;4.70;;
74821;SDS011;63353;48.702;8.884;2023-04-15T01:56:32;7.03;;;4.57;;
74821;SDS011;63353;48.702;8.884;2023-04-15T01:59:07;7.63;;;4.47;;
74821;SDS011;63353;48.702;8.884;2023-04-15T02:01:42;7.50;;;4.23;;
74821;SDS011;63353;48.702;8.884;2023-04-15T02:04:23;7.40;;;4.60;;
74821;SDS011;63353;48.702;8.884;2023-04-15T02:06:57;6.23;;;4.17;;
74821;SDS011;63353;48.702;8.884;2023-04-15T02:09:23;5.97;;;4.17;;
74821;SDS011;63353;48.702;8.884;2023-04-15T02:11:55;6.67;;;4.70;;
74821;SDS011;63353;48.702;8.884;2023-04-15T02:14:24;6.77;;;4.13;;
74821;SDS011;63353;48.702;8.884;2023-04-15T02:16:52;7.40;;;4.60;;
74821;SDS011;63353;48.702;8.884;2023-04-15T02:19:18;6.60;;;4.40;;
74821;SDS011;63353;48.702;8.884;2023-04-15T02:21:43;8.27;;;4.63;;
74821;SDS011;63353;48.702;8.884;2023-04-15T02:24:09;6.87;;;4.33;;
74821;SDS011;63353;48.702;8.884;2023-04-15T02:26:36;7.90;;;4.67;;
74821;SDS011;63353;48.702;8.884;2023-04-15T02:29:10;6.77;;;4.30;;
74821;SDS011;63353;48.702;8.884;2023-04-15T02:31:39;7.30;;;4.47;;
74821;SDS011;63353;48.702;8.884;2023-04-15T02:34:12;6.23;;;4.47;;
74821;SDS011;63353;48.702;8.884;2023-04-15T02:36:41;6.43;;;4.07;;
74821;SDS011;63353;48.702;8.884;2023-04-15T02:39:11;5.60;;;4.10;;
74821;SDS011;63353;48.702;8.884;2023-04-15T02:41:42;5.70;;;4.10;;
74821;SDS011;63353;48.702;8.884;2023-04-15T02:44:22;5.97;;;4.10;;
74821;SDS011;63353;48.702;8.884;2023-04-15T02:46:48;6.37;;;4.03;;
74821;SDS011;63353;48.702;8.884;2023-04-15T02:49:21;4.57;;;3.80;;
74821;SDS011;63353;48.702;8.884;2023-04-15T02:51:53;7.27;;;4.40;;
74821;SDS011;63353;48.702;8.884;2023-04-15T02:54:19;5.60;;;4.07;;
74821;SDS011;63353;48.702;8.884;2023-04-15T02:56:56;6.83;;;4.43;;
74821;SDS011;63353;48.702;8.884;2023-04-15T02:59:30;5.73;;;4.07;;
74821;SDS011;63353;48.702;8.884;2023-04-15T03:02:01;5.47;;;4.13;;
74821;SDS011;63353;48.702;8.884;2023-04-15T03:04:30;6.53;;;4.30;;
74821;SDS011;63353;48.702;8.884;2023-04-15T03:06:56;4.33;;;3.50;;
74821;SDS011;63353;48.702;8.884;2023-04-15T03:09:21;4.90;;;3.90;;
74821;SDS011;63353;48.702;8.884;2023-04-15T03:11:47;6.73;;;3.77;;
74821;SDS011;63353;48.702;8.884;2023-04-15T03:14:12;6.50;;;3.97;;
74821;SDS011;63353;48.702;8.884;2023-04-15T03:16:44;7.97;;;4.30;;
74821;SDS011;63353;48.702;8.884;2023-04-15T03:19:13;6.07;;;4.07;;
74821;SDS011;63353;48.702;8.884;2023-04-15T03:21:47;6.77;;;4.00;;
74821;SDS011;63353;48.702;8.884;2023-04-15T03:24:19;4.60;;;3.53;;
74821;SDS011;63353;48.702;8.884;2023-04-15T03:26:45;6.73;;;4.10;;
74821;SDS011;63353;48.702;8.884;2023-04-15T03:29:10;4.67;;;3.60;;
74821;SDS011;63353;48.702;8.884;2023-04-15T03:31:39;5.07;;;4.13;;
74821;SDS011;63353;48.702;8.884;2023-04-15T03:34:05;8.67;;;4.17;;
74821;SDS011;63353;48.702;8.884;2023-04-15T03:36:31;5.03;;;4.03;;
74821;SDS011;63353;48.702;8.884;2023-04-15T03:38:57;5.40;;;3.80;;
74821;SDS011;63353;48.702;8.884;2023-04-15T03:41:23;8.03;;;4.30;;
74821;SDS011;63353;48.702;8.884;2023-04-15T03:43:55;5.73;;;4.00;;
74821;SDS011;63353;48.702;8.884;2023-04-15T03:46:21;4.57;;;3.90;;
74821;SDS011;63353;48.702;8.884;2023-04-15T03:48:47;7.87;;;4.53;;
74821;SDS011;63353;48.702;8.884;2023-04-15T03:51:12;7.37;;;4.10;;
74821;SDS011;63353;48.702;8.884;2023-04-15T03:53:38;5.17;;;3.63;;
74821;SDS011;63353;48.702;8.884;2023-04-15T03:56:04;4.20;;;3.73;;
74821;SDS011;63353;48.702;8.884;2023-04-15T03:58:29;7.37;;;4.00;;
74821;SDS011;63353;48.702;8.884;2023-04-15T04:00:55;4.60;;;4.10;;
74821;SDS011;63353;48.702;8.884;2023-04-15T04:03:22;5.40;;;4.37;;
74821;SDS011;63353;48.702;8.884;2023-04-15T04:05:48;7.10;;;4.33;;
74821;SDS011;63353;48.702;8.884;2023-04-15T04:08:14;7.60;;;4.40;;
74821;SDS011;63353;48.702;8.884;2023-04-15T04:10:41;6.37;;;4.00;;
74821;SDS011;63353;48.702;8.884;2023-04-15T04:13:06;7.93;;;4.10;;
74821;SDS011;63353;48.702;8.884;2023-04-15T04:15:32;6.40;;;4.10;;
74821;SDS011;63353;48.702;8.884;2023-04-15T04:17:58;6.20;;;3.83;;
74821;SDS011;63353;48.702;8.884;2023-04-15T04:20:23;7.17;;;3.77;;
74821;SDS011;63353;48.702;8.884;2023-04-15T04:22:49;6.47;;;3.77;;
74821;SDS011;63353;48.702;8.884;2023-04-15T04:25:15;5.27;;;3.70;;
74821;SDS011;63353;48.702;8.884;2023-04-15T04:27:41;6.73;;;3.87;;
74821;SDS011;63353;48.702;8.884;2023-04-15T04:30:07;5.67;;;4.13;;
74821;SDS011;63353;48.702;8.884;2023-04-15T04:32:32;4.17;;;3.40;;
74821;SDS011;63353;48.702;8.884;2023-04-15T04:34:58;5.43;;;3.57;;
74821;SDS011;63353;48.702;8.884;2023-04-15T04:37:24;4.37;;;3.73;;
74821;SDS011;63353;48.702;8.884;2023-04-15T04:39:50;7.60;;;4.60;;
74821;SDS011;63353;48.702;8.884;2023-04-15T04:42:15;6.30;;;5.13;;
74821;SDS011;63353;48.702;8.884;2023-04-15T04:44:41;7.20;;;4.60;;
74821;SDS011;63353;48.702;8.884;2023-04-15T04:47:07;6.57;;;5.30;;
74821;SDS011;63353;48.702;8.884;2023-04-15T04:49:33;6.97;;;4.50;;
74821;SDS011;63353;48.702;8.884;2023-04-15T04:51:58;5.70;;;4.27;;
74821;SDS011;63353;48.702;8.884;2023-04-15T04:54:24;9.87;;;5.27;;
74821;SDS011;63353;48.702;8.884;2023-04-15T04:56:51;9.00;;;7.47;;
74821;SDS011;63353;48.702;8.884;2023-04-15T04:59:17;7.70;;;5.20;;
74821;SDS011;63353;48.702;8.884;2023-04-15T05:01:42;8.27;;;4.90;;
74821;SDS011;63353;48.702;8.884;2023-04-15T05:04:08;11.03;;;4.70;;
74821;SDS011;63353;48.702;8.884;2023-04-15T05:06:34;9.20;;;4.83;;
74821;SDS011;63353;48.702;8.884;2023-04-15T05:09:01;7.03;;;4.90;;
74821;SDS011;63353;48.702;8.884;2023-04-15T05:11:27;6.23;;;5.00;;
74821;SDS011;63353;48.702;8.884;2023-04-15T05:13:53;5.77;;;4.43;;
74821;SDS011;63353;48.702;8.884;2023-04-15T05:16:19;7.03;;;4.47;;
74821;SDS011;63353;48.702;8.884;2023-04-15T05:18:45;5.60;;;3.97;;
74821;SDS011;63353;48.702;8.884;2023-04-15T05:21:11;6.13;;;4.33;;
74821;SDS011;63353;48.702;8.884;2023-04-15T05:23:36;6.17;;;4.07;;
74821;SDS011;63353;48.702;8.884;2023-04-15T05:26:02;6.00;;;3.83;;
74821;SDS011;63353;48.702;8.884;2023-04-15T05:28:28;8.23;;;4.03;;
74821;SDS011;63353;48.702;8.884;2023-04-15T05:30:54;5.60;;;3.93;;
74821;SDS011;63353;48.702;8.884;2023-04-15T05:33:20;4.93;;;4.00;;
74821;SDS011;63353;48.702;8.884;2023-04-15T05:35:45;7.00;;;5.00;;
74821;SDS011;63353;48.702;8.884;2023-04-15T05:38:11;6.80;;;5.27;;
74821;SDS011;63353;48.702;8.884;2023-04-15T05:40:37;8.43;;;6.80;;
74821;SDS011;63353;48.702;8.884;2023-04-15T05:43:02;8.80;;;7.30;;
74821;SDS011;63353;48.702;8.884;2023-04-15T05:45:28;9.37;;;7.57;;
74821;SDS011;63353;48.702;8.884;2023-04-15T05:47:54;8.57;;;7.03;;
74821;SDS011;63353;48.702;8.884;2023-04-15T05:50:19;7.20;;;6.50;;
74821;SDS011;63353;48.702;8.884;2023-04-15T05:52:45;8.40;;;6.33;;
74821;SDS011;63353;48.702;8.884;2023-04-15T05:55:11;11.47;;;8.03;;
74821;SDS011;63353;48.702;8.884;2023-04-15T05:57:37;12.03;;;7.23;;
74821;SDS011;63353;48.702;8.884;2023-04-15T06:00:03;8.10;;;6.90;;
74821;SDS011;63353;48.702;8.884;2023-04-15T06:02:29;9.17;;;5.80;;
74821;SDS011;63353;48.702;8.884;2023-04-15T06:04:55;6.97;;;5.43;;
74821;SDS011;63353;48.702;8.884;2023-04-15T06:07:22;8.80;;;5.93;;
74821;SDS011;63353;48.702;8.884;2023-04-15T06:09:48;6.60;;;5.20;;
74821;SDS011;63353;48.702;8.884;2023-04-15T06:12:14;8.90;;;5.40;;
74821;SDS011;63353;48.702;8.884;2023-04-15T06:14:39;6.50;;;5.23;;
74821;SDS011;63353;48.702;8.884;2023-04-15T06:17:05;7.27;;;5.23;;
74821;SDS011;63353;48.702;8.884;2023-04-15T06:19:31;9.40;;;6.23;;
74821;SDS011;63353;48.702;8.884;2023-04-15T06:21:57;7.77;;;6.17;;
74821;SDS011;63353;48.702;8.884;2023-04-15T06:24:23;7.47;;;6.00;;
74821;SDS011;63353;48.702;8.884;2023-04-15T06:26:52;8.50;;;5.23;;
74821;SDS011;63353;48.702;8.884;2023-04-15T06:29:18;5.70;;;5.00;;
74821;SDS011;63353;48.702;8.884;2023-04-15T06:31:43;7.23;;;6.00;;
74821;SDS011;63353;48.702;8.884;2023-04-15T06:34:13;8.40;;;7.57;;
74821;SDS011;63353;48.702;8.884;2023-04-15T06:36:38;10.93;;;7.40;;
74821;SDS011;63353;48.702;8.884;2023-04-15T06:39:10;8.13;;;6.07;;
74821;SDS011;63353;48.702;8.884;2023-04-15T06:41:36;7.73;;;6.07;;
74821;SDS011;63353;48.702;8.884;2023-04-15T06:44:05;7.20;;;5.57;;
74821;SDS011;63353;48.702;8.884;2023-04-15T06:46:31;6.80;;;5.43;;
74821;SDS011;63353;48.702;8.884;2023-04-15T06:48:57;7.77;;;5.33;;
74821;SDS011;63353;48.702;8.884;2023-04-15T06:51:22;8.17;;;6.73;;
74821;SDS011;63353;48.702;8.884;2023-04-15T06:53:51;8.63;;;7.30;;
74821;SDS011;63353;48.702;8.884;2023-04-15T06:56:16;8.33;;;6.03;;
74821;SDS011;63353;48.702;8.884;2023-04-15T06:58:48;10.27;;;6.27;;
74821;SDS011;63353;48.702;8.884;2023-04-15T07:01:23;10.20;;;7.70;;
74821;SDS011;63353;48.702;8.884;2023-04-15T07:03:48;6.40;;;5.33;;
74821;SDS011;63353;48.702;8.884;2023-04-15T07:06:17;5.33;;;4.47;;
74821;SDS011;63353;48.702;8.884;2023-04-15T07:08:46;8.90;;;4.40;;
74821;SDS011;63353;48.702;8.884;2023-04-15T07:11:12;7.63;;;4.70;;
74821;SDS011;63353;48.702;8.884;2023-04-15T07:13:41;6.33;;;5.30;;
74821;SDS011;63353;48.702;8.884;2023-04-15T07:16:10;6.97;;;4.53;;
74821;SDS011;63353;48.702;8.884;2023-04-15T07:18:38;10.10;;;6.57;;
74821;SDS011;63353;48.702;8.884;2023-04-15T07:21:07;14.13;;;9.43;;
74821;SDS011;63353;48.702;8.884;2023-04-15T07:23:33;58.70;;;35.57;;
74821;SDS011;63353;48.702;8.884;2023-04-15T07:25:58;36.13;;;22.27;;
74821;SDS011;63353;48.702;8.884;2023-04-15T07:28:25;42.97;;;24.17;;
74821;SDS011;63353;48.702;8.884;2023-04-15T07:30:51;19.07;;;12.13;;
74821;SDS011;63353;48.702;8.884;2023-04-15T07:33:20;14.00;;;8.93;;
74821;SDS011;63353;48.702;8.884;2023-04-15T07:35:51;9.03;;;5.93;;
74821;SDS011;63353;48.702;8.884;2023-04-15T07:38:20;4.87;;;3.90;;
74821;SDS011;63353;48.702;8.884;2023-04-15T07:40:46;9.13;;;5.67;;
74821;SDS011;63353;48.702;8.884;2023-04-15T07:43:15;11.63;;;7.73;;
74821;SDS011;63353;48.702;8.884;2023-04-15T07:45:47;5.67;;;4.03;;
74821;SDS011;63353;48.702;8.884;2023-04-15T07:48:12;14.30;;;11.47;;
74821;SDS011;63353;48.702;8.884;2023-04-15T07:50:44;6.77;;;4.10;;
74821;SDS011;63353;48.702;8.884;2023-04-15T07:53:10;4.57;;;3.90;;
74821;SDS011;63353;48.702;8.884;2023-04-15T07:55:45;4.97;;;4.20;;
74821;SDS011;63353;48.702;8.884;2023-04-15T07:58:19;5.33;;;3.63;;
74821;SDS011;63353;48.702;8.884;2023-04-15T08:00:45;6.13;;;3.50;;
74821;SDS011;63353;48.702;8.884;2023-04-15T08:03:10;5.87;;;3.20;;
74821;SDS011;63353;48.702;8.884;2023-04-15T08:05:36;4.73;;;3.13;;
74821;SDS011;63353;48.702;8.884;2023-04-15T08:08:02;3.60;;;2.70;;
74821;SDS011;63353;48.702;8.884;2023-04-15T08:10:28;4.53;;;2.50;;
74821;SDS011;63353;48.702;8.884;2023-04-15T08:12:54;4.93;;;2.57;;
74821;SDS011;63353;48.702;8.884;2023-04-15T08:15:20;4.00;;;2.40;;
74821;SDS011;63353;48.702;8.884;2023-04-15T08:17:46;4.03;;;2.87;;
74821;SDS011;63353;48.702;8.884;2023-04-15T08:20:12;6.07;;;3.00;;
74821;SDS011;63353;48.702;8.884;2023-04-15T08:22:38;3.20;;;2.60;;
74821;SDS011;63353;48.702;8.884;2023-04-15T08:25:04;2.57;;;2.13;;
74821;SDS011;63353;48.702;8.884;2023-04-15T08:27:30;3.87;;;2.30;;
74821;SDS011;63353;48.702;8.884;2023-04-15T08:30:05;2.83;;;2.10;;
74821;SDS011;63353;48.702;8.884;2023-04-15T08:32:35;3.37;;;2.50;;
74821;SDS011;63353;48.702;8.884;2023-04-15T08:35:00;5.47;;;2.90;;
74821;SDS011;63353;48.702;8.884;2023-04-15T08:37:26;3.63;;;2.50;;
74821;SDS011;63353;48.702;8.884;2023-04-15T08:39:52;4.57;;;2.27;;
74821;SDS011;63353;48.702;8.884;2023-04-15T08:42:18;2.73;;;2.33;;
74821;SDS011;63353;48.702;8.884;2023-04-15T08:44:58;4.37;;;2.30;;
74821;SDS011;63353;48.702;8.884;2023-04-15T08:47:28;3.80;;;2.63;;
74821;SDS011;63353;48.702;8.884;2023-04-15T08:49:58;3.67;;;2.60;;
74821;SDS011;63353;48.702;8.884;2023-04-15T08:52:29;2.93;;;2.50;;
74821;SDS011;63353;48.702;8.884;2023-04-15T08:54:55;2.47;;;2.27;;
74821;SDS011;63353;48.702;8.884;2023-04-15T08:57:26;3.07;;;2.60;;
74821;SDS011;63353;48.702;8.884;2023-04-15T08:59:55;4.60;;;2.70;;
74821;SDS011;63353;48.702;8.884;2023-04-15T09:02:22;6.23;;;3.10;;
74821;SDS011;63353;48.702;8.884;2023-04-15T09:04:49;3.83;;;2.87;;
74821;SDS011;63353;48.702;8.884;2023-04-15T09:07:15;3.90;;;2.50;;
74821;SDS011;63353;48.702;8.884;2023-04-15T09:09:52;7.77;;;3.37;;
74821;SDS011;63353;48.702;8.884;2023-04-15T09:12:24;4.87;;;3.03;;
74821;SDS011;63353;48.702;8.884;2023-04-15T09:14:56;4.67;;;2.80;;
74821;SDS011;63353;48.702;8.884;2023-04-15T09:17:23;4.10;;;3.30;;
74821;SDS011;63353;48.702;8.884;2023-04-15T09:20:11;5.50;;;3.07;;
74821;SDS011;63353;48.702;8.884;2023-04-15T09:22:50;5.10;;;3.30;;
74821;SDS011;63353;48.702;8.884;2023-04-15T09:25:28;4.17;;;3.50;;
74821;SDS011;63353;48.702;8.884;2023-04-15T09:30:25;5.90;;;5.00;;
74821;SDS011;63353;48.702;8.884;2023-04-15T09:32:59;4.03;;;3.70;;
74821;SDS011;63353;48.702;8.884;2023-04-15T09:35:26;4.87;;;3.90;;
74821;SDS011;63353;48.702;8.884;2023-04-15T09:38:08;6.80;;;3.93;;
74821;SDS011;63353;48.702;8.884;2023-04-15T09:40:40;3.63;;;3.33;;
74821;SDS011;63353;48.702;8.884;2023-04-15T09:43:07;5.00;;;4.30;;
74821;SDS011;63353;48.702;8.884;2023-04-15T09:45:34;3.57;;;3.20;;
74821;SDS011;63353;48.702;8.884;2023-04-15T09:48:14;5.57;;;2.93;;
74821;SDS011;63353;48.702;8.884;2023-04-15T09:50:41;3.80;;;2.20;;
74821;SDS011;63353;48.702;8.884;2023-04-15T09:53:11;2.87;;;2.20;;
74821;SDS011;63353;48.702;8.884;2023-04-15T09:55:50;3.80;;;2.33;;
74821;SDS011;63353;48.702;8.884;2023-04-15T09:58:22;2.77;;;2.30;;
74821;SDS011;63353;48.702;8.884;2023-04-15T10:00:55;4.17;;;2.50;;
74821;SDS011;63353;48.702;8.884;2023-04-15T10:05:49;4.03;;;2.60;;
74821;SDS011;63353;48.702;8.884;2023-04-15T10:08:18;4.47;;;2.53;;
74821;SDS011;63353;48.702;8.884;2023-04-15T10:10:48;3.17;;;2.40;;
74821;SDS011;63353;48.702;8.884;2023-04-15T10:13:16;3.83;;;2.63;;
74821;SDS011;63353;48.702;8.884;2023-04-15T10:15:44;4.33;;;2.57;;
74821;SDS011;63353;48.702;8.884;2023-04-15T10:18:20;2.80;;;2.60;;
74821;SDS011;63353;48.702;8.884;2023-04-15T10:20:49;3.40;;;2.57;;
74821;SDS011;63353;48.702;8.884;2023-04-15T10:23:19;2.30;;;2.10;;
74821;SDS011;63353;48.702;8.884;2023-04-15T10:25:50;4.10;;;2.87;;
74821;SDS011;63353;48.702;8.884;2023-04-15T10:28:18;2.77;;;2.53;;
74821;SDS011;63353;48.702;8.884;2023-04-15T10:30:47;2.50;;;2.30;;
74821;SDS011;63353;48.702;8.884;2023-04-15T10:33:14;2.60;;;2.40;;
74821;SDS011;63353;48.702;8.884;2023-04-15T10:35:47;4.83;;;3.00;;
74821;SDS011;63353;48.702;8.884;2023-04-15T10:38:35;3.77;;;2.90;;
74821;SDS011;63353;48.702;8.884;2023-04-15T10:41:26;2.87;;;2.50;;
74821;SDS011;63353;48.702;8.884;2023-04-15T10:49:24;2.50;;;2.30;;
74821;SDS011;63353;48.702;8.884;2023-04-15T10:51:59;7.67;;;2.87;;
74821;SDS011;63353;48.702;8.884;2023-04-15T10:56:52;3.63;;;3.10;;
74821;SDS011;63353;48.702;8.884;2023-04-15T11:02:51;3.93;;;3.03;;
74821;SDS011;63353;48.702;8.884;2023-04-15T11:11:20;3.37;;;2.97;;
74821;SDS011;63353;48.702;8.884;2023-04-15T11:13:47;3.13;;;2.90;;
74821;SDS011;63353;48.702;8.884;2023-04-15T11:16:17;6.07;;;3.90;;
74821;SDS011;63353;48.702;8.884;2023-04-15T11:18:52;4.60;;;3.17;;
74821;SDS011;63353;48.702;8.884;2023-04-15T11:21:19;5.60;;;3.30;;
74821;SDS011;63353;48.702;8.884;2023-04-15T11:23:51;5.43;;;3.73;;
74821;SDS011;63353;48.702;8.884;2023-04-15T11:26:17;4.53;;;3.90;;
74821;SDS011;63353;48.702;8.884;2023-04-15T11:28:52;3.17;;;2.90;;
74821;SDS011;63353;48.702;8.884;2023-04-15T11:31:18;3.67;;;3.10;;
74821;SDS011;63353;48.702;8.884;2023-04-15T11:33:54;4.03;;;3.30;;
74821;SDS011;63353;48.702;8.884;2023-04-15T11:36:28;4.77;;;3.67;;
74821;SDS011;63353;48.702;8.884;2023-04-15T11:38:56;7.30;;;3.63;;
74821;SDS011;63353;48.702;8.884;2023-04-15T11:41:26;4.77;;;4.00;;
74821;SDS011;63353;48.702;8.884;2023-04-15T11:43:51;6.10;;;3.80;;
74821;SDS011;63353;48.702;8.884;2023-04-15T11:46:20;4.70;;;3.83;;
74821;SDS011;63353;48.702;8.884;2023-04-15T11:48:55;4.50;;;4.00;;
74821;SDS011;63353;48.702;8.884;2023-04-15T11:51:21;6.30;;;3.40;;
74821;SDS011;63353;48.702;8.884;2023-04-15T11:53:59;4.93;;;3.60;;
74821;SDS011;63353;48.702;8.884;2023-04-15T11:56:25;6.87;;;3.40;;
74821;SDS011;63353;48.702;8.884;2023-04-15T11:58:55;7.27;;;3.50;;
74821;SDS011;63353;48.702;8.884;2023-04-15T12:01:32;5.60;;;3.93;;
74821;SDS011;63353;48.702;8.884;2023-04-15T12:04:09;5.07;;;4.37;;
74821;SDS011;63353;48.702;8.884;2023-04-15T12:06:39;5.97;;;4.60;;
74821;SDS011;63353;48.702;8.884;2023-04-15T12:09:09;5.07;;;4.53;;
74821;SDS011;63353;48.702;8.884;2023-04-15T12:11:45;5.00;;;3.90;;
74821;SDS011;63353;48.702;8.884;2023-04-15T12:16:57;6.27;;;4.60;;
74821;SDS011;63353;48.702;8.884;2023-04-15T12:19:37;6.17;;;4.13;;
74821;SDS011;63353;48.702;8.884;2023-04-15T12:22:12;4.53;;;3.93;;
74821;SDS011;63353;48.702;8.884;2023-04-15T12:24:40;7.60;;;4.80;;
74821;SDS011;63353;48.702;8.884;2023-04-15T12:27:12;4.67;;;4.13;;
74821;SDS011;63353;48.702;8.884;2023-04-15T12:29:39;7.90;;;5.53;;
74821;SDS011;63353;48.702;8.884;2023-04-15T12:32:12;5.30;;;4.20;;
74821;SDS011;63353;48.702;8.884;2023-04-15T12:34:43;7.03;;;4.90;;
74821;SDS011;63353;48.702;8.884;2023-04-15T12:37:17;5.67;;;4.63;;
74821;SDS011;63353;48.702;8.884;2023-04-15T12:39:45;7.83;;;5.77;;
74821;SDS011;63353;48.702;8.884;2023-04-15T12:42:13;7.40;;;5.23;;
74821;SDS011;63353;48.702;8.884;2023-04-15T12:44:42;5.47;;;4.90;;
74821;SDS011;63353;48.702;8.884;2023-04-15T12:47:11;7.33;;;5.73;;
74821;SDS011;63353;48.702;8.884;2023-04-15T12:49:37;7.20;;;5.17;;
74821;SDS011;63353;48.702;8.884;2023-04-15T12:52:03;5.87;;;5.27;;
74821;SDS011;63353;48.702;8.884;2023-04-15T12:54:29;7.10;;;5.83;;
74821;SDS011;63353;48.702;8.884;2023-04-15T12:56:56;8.27;;;5.67;;
74821;SDS011;63353;48.702;8.884;2023-04-15T12:59:23;8.53;;;5.93;;
74821;SDS011;63353;48.702;8.884;2023-04-15T13:01:52;6.67;;;5.80;;
74821;SDS011;63353;48.702;8.884;2023-04-15T13:04:24;14.77;;;11.23;;
74821;SDS011;63353;48.702;8.884;2023-04-15T13:06:49;6.10;;;5.27;;
74821;SDS011;63353;48.702;8.884;2023-04-15T13:09:18;6.50;;;5.60;;
74821;SDS011;63353;48.702;8.884;2023-04-15T13:11:44;6.53;;;4.53;;
74821;SDS011;63353;48.702;8.884;2023-04-15T13:14:13;4.60;;;4.20;;
74821;SDS011;63353;48.702;8.884;2023-04-15T13:16:42;4.97;;;4.30;;
74821;SDS011;63353;48.702;8.884;2023-04-15T13:19:07;6.27;;;4.80;;
74821;SDS011;63353;48.702;8.884;2023-04-15T13:21:33;6.73;;;5.00;;
74821;SDS011;63353;48.702;8.884;2023-04-15T13:24:02;6.33;;;4.83;;
74821;SDS011;63353;48.702;8.884;2023-04-15T13:26:28;7.20;;;5.20;;
74821;SDS011;63353;48.702;8.884;2023-04-15T13:28:58;6.30;;;5.60;;
74821;SDS011;63353;48.702;8.884;2023-04-15T13:31:23;7.47;;;5.87;;
74821;SDS011;63353;48.702;8.884;2023-04-15T13:33:55;8.17;;;6.00;;
74821;SDS011;63353;48.702;8.884;2023-04-15T13:36:21;8.40;;;6.17;;
74821;SDS011;63353;48.702;8.884;2023-04-15T13:38:47;8.20;;;7.00;;
74821;SDS011;63353;48.702;8.884;2023-04-15T13:41:12;7.30;;;6.50;;
74821;SDS011;63353;48.702;8.884;2023-04-15T13:43:38;7.77;;;6.13;;
74821;SDS011;63353;48.702;8.884;2023-04-15T13:46:04;6.63;;;5.77;;
74821;SDS011;63353;48.702;8.884;2023-04-15T13:48:30;6.57;;;5.70;;
74821;SDS011;63353;48.702;8.884;2023-04-15T13:50:55;7.30;;;6.37;;
74821;SDS011;63353;48.702;8.884;2023-04-15T13:53:21;6.63;;;5.60;;
74821;SDS011;63353;48.702;8.884;2023-04-15T13:55:47;6.53;;;5.93;;
74821;SDS011;63353;48.702;8.884;2023-04-15T13:58:12;7.23;;;6.00;;
74821;SDS011;63353;48.702;8.884;2023-04-15T14:00:38;8.43;;;6.40;;
74821;SDS011;63353;48.702;8.884;2023-04-15T14:03:04;6.20;;;5.60;;
74821;SDS011;63353;48.702;8.884;2023-04-15T14:05:30;7.03;;;6.07;;
74821;SDS011;63353;48.702;8.884;2023-04-15T14:07:56;12.33;;;9.50;;
74821;SDS011;63353;48.702;8.884;2023-04-15T14:10:23;7.77;;;5.93;;
74821;SDS011;63353;48.702;8.884;2023-04-15T14:12:49;7.87;;;6.37;;
74821;SDS011;63353;48.702;8.884;2023-04-15T14:15:15;11.97;;;8.50;;
74821;SDS011;63353;48.702;8.884;2023-04-15T14:17:42;5.87;;;4.80;;
74821;SDS011;63353;48.702;8.884;2023-04-15T14:20:08;6.73;;;5.93;;
74821;SDS011;63353;48.702;8.884;2023-04-15T14:22:34;11.00;;;8.43;;
74821;SDS011;63353;48.702;8.884;2023-04-15T14:25:03;6.53;;;5.43;;
74821;SDS011;63353;48.702;8.884;2023-04-15T14:27:29;6.37;;;5.67;;
74821;SDS011;63353;48.702;8.884;2023-04-15T14:29:57;5.53;;;4.20;;
74821;SDS011;63353;48.702;8.884;2023-04-15T14:32:27;6.50;;;4.53;;
74821;SDS011;63353;48.702;8.884;2023-04-15T14:34:53;4.77;;;3.70;;
74821;SDS011;63353;48.702;8.884;2023-04-15T14:37:22;4.73;;;3.90;;
74821;SDS011;63353;48.702;8.884;2023-04-15T14:39:50;5.17;;;4.27;;
74821;SDS011;63353;48.702;8.884;2023-04-15T14:42:16;4.80;;;3.80;;
74821;SDS011;63353;48.702;8.884;2023-04-15T14:44:42;4.37;;;3.97;;
74821;SDS011;63353;48.702;8.884;2023-04-15T14:47:08;5.23;;;4.50;;
74821;SDS011;63353;48.702;8.884;2023-04-15T14:49:34;5.40;;;4.90;;
74821;SDS011;63353;48.702;8.884;2023-04-15T14:52:00;6.47;;;4.80;;
74821;SDS011;63353;48.702;8.884;2023-04-15T14:54:25;4.73;;;4.10;;
74821;SDS011;63353;48.702;8.884;2023-04-15T14:56:51;4.60;;;4.20;;
74821;SDS011;63353;48.702;8.884;2023-04-15T14:59:17;4.83;;;4.23;;
74821;SDS011;63353;48.702;8.884;2023-04-15T15:01:42;4.87;;;4.37;;
74821;SDS011;63353;48.702;8.884;2023-04-15T15:04:08;5.53;;;4.87;;
74821;SDS011;63353;48.702;8.884;2023-04-15T15:06:34;4.80;;;4.17;;
74821;SDS011;63353;48.702;8.884;2023-04-15T15:09:03;4.80;;;4.20;;
74821;SDS011;63353;48.702;8.884;2023-04-15T15:11:29;5.27;;;4.70;;
74821;SDS011;63353;48.702;8.884;2023-04-15T15:13:55;4.70;;;4.20;;
74821;SDS011;63353;48.702;8.884;2023-04-15T15:16:22;6.37;;;5.00;;
74821;SDS011;63353;48.702;8.884;2023-04-15T15:18:48;5.07;;;4.43;;